sensor_id;sensor_type;location;lat;lon;timestamp;P1;durP1;ratioP1;P2;durP2;ratioP2
14326;SDS011;7247;53.330;-1.180;2023-09-12T00:02:15;6.60;;;4.30;;
14326;SDS011;7247;53.330;-1.180;2023-09-12T00:04:43;8.83;;;5.83;;
14326;SDS011;7247;53.330;-1.180;2023-09-12T00:07:09;9.90;;;6.73;;
14326;SDS011;7247;53.330;-1.180;2023-09-12T00:09:35;9.60;;;6.67;;
14326;SDS011;7247;53.330;-1.180;2023-09-12T00:12:02;7.83;;;6.47;;
14326;SDS011;7247;53.330;-1.180;2023-09-12T00:14:28;10.60;;;6.80;;
14326;SDS011;7247;53.330;-1.180;2023-09-12T00:16:55;10.90;;;8.00;;
14326;SDS011;7247;53.330;-1.180;2023-09-12T00:19:21;9.13;;;7.60;;
14326;SDS011;7247;53.330;-1.180;2023-09-12T00:21:49;9.73;;;7.60;;
14326;SDS011;7247;53.330;-1.180;2023-09-12T00:24:16;10.87;;;8.27;;
14326;SDS011;7247;53.330;-1.180;2023-09-12T00:26:42;11.93;;;8.30;;
14326;SDS011;7247;53.330;-1.180;2023-09-12T00:29:08;11.27;;;7.97;;
14326;SDS011;7247;53.330;-1.180;2023-09-12T00:31:35;14.97;;;8.20;;
14326;SDS011;7247;53.330;-1.180;2023-09-12T00:34:01;9.77;;;7.90;;
14326;SDS011;7247;53.330;-1.180;2023-09-12T00:36:28;12.37;;;7.83;;
14326;SDS011;7247;53.330;-1.180;2023-09-12T00:38:56;10.00;;;7.10;;
14326;SDS011;7247;53.330;-1.180;2023-09-12T00:41:23;9.60;;;6.33;;
14326;SDS011;7247;53.330;-1.180;2023-09-12T00:43:49;8.37;;;6.60;;
14326;SDS011;7247;53.330;-1.180;2023-09-12T00:46:18;14.77;;;7.10;;
14326;SDS011;7247;53.330;-1.180;2023-09-12T00:48:44;8.00;;;6.93;;
14326;SDS011;7247;53.330;-1.180;2023-09-12T00:51:12;9.13;;;6.93;;
14326;SDS011;7247;53.330;-1.180;2023-09-12T00:53:39;9.80;;;7.37;;
14326;SDS011;7247;53.330;-1.180;2023-09-12T00:56:07;10.50;;;7.50;;
14326;SDS011;7247;53.330;-1.180;2023-09-12T00:58:33;11.60;;;8.37;;
14326;SDS011;7247;53.330;-1.180;2023-09-12T01:01:00;11.17;;;7.67;;
14326;SDS011;7247;53.330;-1.180;2023-09-12T01:03:26;11.10;;;8.10;;
14326;SDS011;7247;53.330;-1.180;2023-09-12T01:05:53;10.80;;;8.50;;
14326;SDS011;7247;53.330;-1.180;2023-09-12T01:08:20;10.73;;;8.63;;
14326;SDS011;7247;53.330;-1.180;2023-09-12T01:10:46;12.00;;;9.07;;
14326;SDS011;7247;53.330;-1.180;2023-09-12T01:13:15;13.07;;;9.90;;
14326;SDS011;7247;53.330;-1.180;2023-09-12T01:15:41;14.53;;;10.23;;
14326;SDS011;7247;53.330;-1.180;2023-09-12T01:18:08;13.27;;;10.43;;
14326;SDS011;7247;53.330;-1.180;2023-09-12T01:20:36;14.83;;;10.87;;
14326;SDS011;7247;53.330;-1.180;2023-09-12T01:23:08;16.23;;;10.73;;
14326;SDS011;7247;53.330;-1.180;2023-09-12T01:25:59;14.87;;;11.63;;
14326;SDS011;7247;53.330;-1.180;2023-09-12T01:28:29;15.47;;;11.00;;
14326;SDS011;7247;53.330;-1.180;2023-09-12T01:30:55;16.50;;;11.67;;
14326;SDS011;7247;53.330;-1.180;2023-09-12T01:33:24;14.90;;;11.20;;
14326;SDS011;7247;53.330;-1.180;2023-09-12T01:35:50;16.83;;;12.73;;
14326;SDS011;7247;53.330;-1.180;2023-09-12T01:38:17;19.27;;;12.63;;
14326;SDS011;7247;53.330;-1.180;2023-09-12T01:40:44;20.07;;;12.23;;
14326;SDS011;7247;53.330;-1.180;2023-09-12T01:43:12;17.97;;;12.73;;
14326;SDS011;7247;53.330;-1.180;2023-09-12T01:45:42;16.63;;;12.50;;
14326;SDS011;7247;53.330;-1.180;2023-09-12T01:48:09;21.40;;;13.83;;
14326;SDS011;7247;53.330;-1.180;2023-09-12T01:50:37;17.67;;;12.83;;
14326;SDS011;7247;53.330;-1.180;2023-09-12T01:53:03;19.90;;;13.67;;
14326;SDS011;7247;53.330;-1.180;2023-09-12T01:55:30;18.23;;;14.43;;
14326;SDS011;7247;53.330;-1.180;2023-09-12T01:57:57;19.10;;;15.20;;
14326;SDS011;7247;53.330;-1.180;2023-09-12T02:00:23;19.13;;;14.63;;
14326;SDS011;7247;53.330;-1.180;2023-09-12T02:02:51;16.73;;;13.97;;
14326;SDS011;7247;53.330;-1.180;2023-09-12T02:05:18;19.03;;;14.90;;
14326;SDS011;7247;53.330;-1.180;2023-09-12T02:07:45;17.27;;;14.03;;
14326;SDS011;7247;53.330;-1.180;2023-09-12T02:10:12;18.17;;;13.90;;
14326;SDS011;7247;53.330;-1.180;2023-09-12T02:12:38;11.40;;;8.53;;
14326;SDS011;7247;53.330;-1.180;2023-09-12T02:15:05;8.73;;;7.47;;
14326;SDS011;7247;53.330;-1.180;2023-09-12T02:17:32;8.07;;;7.03;;
14326;SDS011;7247;53.330;-1.180;2023-09-12T02:20:00;10.97;;;8.77;;
14326;SDS011;7247;53.330;-1.180;2023-09-12T02:22:27;9.37;;;8.40;;
14326;SDS011;7247;53.330;-1.180;2023-09-12T02:24:53;10.37;;;8.97;;
14326;SDS011;7247;53.330;-1.180;2023-09-12T02:27:20;11.97;;;10.87;;
14326;SDS011;7247;53.330;-1.180;2023-09-12T02:29:46;11.30;;;10.17;;
14326;SDS011;7247;53.330;-1.180;2023-09-12T02:32:15;12.93;;;11.53;;
14326;SDS011;7247;53.330;-1.180;2023-09-12T02:34:42;12.90;;;11.20;;
14326;SDS011;7247;53.330;-1.180;2023-09-12T02:37:09;12.83;;;11.63;;
14326;SDS011;7247;53.330;-1.180;2023-09-12T02:39:36;13.33;;;12.03;;
14326;SDS011;7247;53.330;-1.180;2023-09-12T02:42:03;13.13;;;11.73;;
14326;SDS011;7247;53.330;-1.180;2023-09-12T02:44:29;14.17;;;12.77;;
14326;SDS011;7247;53.330;-1.180;2023-09-12T02:46:55;13.90;;;12.50;;
14326;SDS011;7247;53.330;-1.180;2023-09-12T02:49:22;13.40;;;12.00;;
14326;SDS011;7247;53.330;-1.180;2023-09-12T02:51:48;14.00;;;12.43;;
14326;SDS011;7247;53.330;-1.180;2023-09-12T02:54:16;14.30;;;12.80;;
14326;SDS011;7247;53.330;-1.180;2023-09-12T02:56:42;13.43;;;12.00;;
14326;SDS011;7247;53.330;-1.180;2023-09-12T02:59:09;15.67;;;12.83;;
14326;SDS011;7247;53.330;-1.180;2023-09-12T03:01:35;13.87;;;12.47;;
14326;SDS011;7247;53.330;-1.180;2023-09-12T03:04:02;15.27;;;12.73;;
14326;SDS011;7247;53.330;-1.180;2023-09-12T03:06:28;14.27;;;12.20;;
14326;SDS011;7247;53.330;-1.180;2023-09-12T03:08:55;13.73;;;12.33;;
14326;SDS011;7247;53.330;-1.180;2023-09-12T03:11:22;13.00;;;11.70;;
14326;SDS011;7247;53.330;-1.180;2023-09-12T03:13:49;14.27;;;12.67;;
14326;SDS011;7247;53.330;-1.180;2023-09-12T03:16:15;14.17;;;11.70;;
14326;SDS011;7247;53.330;-1.180;2023-09-12T03:18:41;14.00;;;11.60;;
14326;SDS011;7247;53.330;-1.180;2023-09-12T03:21:08;14.17;;;11.50;;
14326;SDS011;7247;53.330;-1.180;2023-09-12T03:23:34;15.60;;;11.57;;
14326;SDS011;7247;53.330;-1.180;2023-09-12T03:26:01;14.40;;;11.43;;
14326;SDS011;7247;53.330;-1.180;2023-09-12T03:28:29;11.83;;;10.47;;
14326;SDS011;7247;53.330;-1.180;2023-09-12T03:31:02;14.33;;;10.47;;
14326;SDS011;7247;53.330;-1.180;2023-09-12T03:33:29;13.87;;;10.67;;
14326;SDS011;7247;53.330;-1.180;2023-09-12T03:35:55;14.50;;;9.63;;
14326;SDS011;7247;53.330;-1.180;2023-09-12T03:38:21;13.70;;;9.80;;
14326;SDS011;7247;53.330;-1.180;2023-09-12T03:40:47;7.30;;;6.10;;
14326;SDS011;7247;53.330;-1.180;2023-09-12T03:43:13;7.80;;;6.40;;
14326;SDS011;7247;53.330;-1.180;2023-09-12T03:45:41;7.17;;;6.00;;
14326;SDS011;7247;53.330;-1.180;2023-09-12T03:48:07;7.63;;;5.93;;
14326;SDS011;7247;53.330;-1.180;2023-09-12T03:50:34;7.33;;;5.93;;
14326;SDS011;7247;53.330;-1.180;2023-09-12T03:53:00;7.90;;;6.17;;
14326;SDS011;7247;53.330;-1.180;2023-09-12T03:55:27;6.37;;;5.77;;
14326;SDS011;7247;53.330;-1.180;2023-09-12T03:57:53;6.47;;;5.80;;
14326;SDS011;7247;53.330;-1.180;2023-09-12T04:00:19;6.50;;;5.50;;
14326;SDS011;7247;53.330;-1.180;2023-09-12T04:02:47;6.70;;;6.00;;
14326;SDS011;7247;53.330;-1.180;2023-09-12T04:05:13;6.23;;;5.63;;
14326;SDS011;7247;53.330;-1.180;2023-09-12T04:07:40;6.00;;;5.40;;
14326;SDS011;7247;53.330;-1.180;2023-09-12T04:10:06;5.53;;;5.03;;
14326;SDS011;7247;53.330;-1.180;2023-09-12T04:12:33;6.63;;;5.13;;
14326;SDS011;7247;53.330;-1.180;2023-09-12T04:14:59;5.93;;;4.70;;
14326;SDS011;7247;53.330;-1.180;2023-09-12T04:17:26;4.67;;;4.27;;
14326;SDS011;7247;53.330;-1.180;2023-09-12T04:19:53;4.23;;;3.83;;
14326;SDS011;7247;53.330;-1.180;2023-09-12T04:22:20;4.90;;;3.30;;
14326;SDS011;7247;53.330;-1.180;2023-09-12T04:24:46;4.70;;;3.70;;
14326;SDS011;7247;53.330;-1.180;2023-09-12T04:27:12;5.03;;;3.60;;
14326;SDS011;7247;53.330;-1.180;2023-09-12T04:29:39;6.00;;;4.00;;
14326;SDS011;7247;53.330;-1.180;2023-09-12T04:32:05;5.67;;;3.70;;
14326;SDS011;7247;53.330;-1.180;2023-09-12T04:34:32;4.40;;;4.00;;
14326;SDS011;7247;53.330;-1.180;2023-09-12T04:36:59;6.57;;;4.73;;
14326;SDS011;7247;53.330;-1.180;2023-09-12T04:39:27;5.13;;;4.37;;
14326;SDS011;7247;53.330;-1.180;2023-09-12T04:41:53;5.20;;;4.70;;
14326;SDS011;7247;53.330;-1.180;2023-09-12T04:44:20;5.07;;;4.20;;
14326;SDS011;7247;53.330;-1.180;2023-09-12T04:46:46;7.60;;;4.40;;
14326;SDS011;7247;53.330;-1.180;2023-09-12T04:49:13;6.03;;;4.63;;
14326;SDS011;7247;53.330;-1.180;2023-09-12T04:51:40;4.73;;;4.23;;
14326;SDS011;7247;53.330;-1.180;2023-09-12T04:54:09;6.90;;;5.27;;
14326;SDS011;7247;53.330;-1.180;2023-09-12T04:56:35;7.90;;;6.30;;
14326;SDS011;7247;53.330;-1.180;2023-09-12T04:59:02;9.60;;;7.30;;
14326;SDS011;7247;53.330;-1.180;2023-09-12T05:01:28;9.63;;;7.77;;
14326;SDS011;7247;53.330;-1.180;2023-09-12T05:03:54;11.07;;;8.63;;
14326;SDS011;7247;53.330;-1.180;2023-09-12T05:06:21;11.20;;;7.77;;
14326;SDS011;7247;53.330;-1.180;2023-09-12T05:08:47;9.07;;;7.20;;
14326;SDS011;7247;53.330;-1.180;2023-09-12T05:11:15;8.00;;;7.17;;
14326;SDS011;7247;53.330;-1.180;2023-09-12T05:13:42;8.40;;;6.63;;
14326;SDS011;7247;53.330;-1.180;2023-09-12T05:16:08;6.70;;;6.00;;
14326;SDS011;7247;53.330;-1.180;2023-09-12T05:18:34;7.63;;;5.60;;
14326;SDS011;7247;53.330;-1.180;2023-09-12T05:21:01;10.00;;;6.40;;
14326;SDS011;7247;53.330;-1.180;2023-09-12T05:23:27;7.93;;;7.23;;
14326;SDS011;7247;53.330;-1.180;2023-09-12T05:25:54;8.20;;;7.50;;
14326;SDS011;7247;53.330;-1.180;2023-09-12T05:28:22;7.57;;;6.87;;
14326;SDS011;7247;53.330;-1.180;2023-09-12T05:30:48;6.60;;;6.00;;
14326;SDS011;7247;53.330;-1.180;2023-09-12T05:33:14;8.17;;;6.03;;
14326;SDS011;7247;53.330;-1.180;2023-09-12T05:35:41;7.20;;;6.10;;
14326;SDS011;7247;53.330;-1.180;2023-09-12T05:38:09;6.67;;;6.07;;
14326;SDS011;7247;53.330;-1.180;2023-09-12T05:40:35;6.37;;;5.77;;
14326;SDS011;7247;53.330;-1.180;2023-09-12T05:43:02;6.30;;;5.40;;
14326;SDS011;7247;53.330;-1.180;2023-09-12T05:45:29;9.00;;;5.77;;
14326;SDS011;7247;53.330;-1.180;2023-09-12T05:47:57;6.77;;;5.60;;
14326;SDS011;7247;53.330;-1.180;2023-09-12T05:50:24;5.83;;;5.23;;
14326;SDS011;7247;53.330;-1.180;2023-09-12T05:52:50;5.87;;;5.00;;
14326;SDS011;7247;53.330;-1.180;2023-09-12T05:55:17;8.43;;;4.87;;
14326;SDS011;7247;53.330;-1.180;2023-09-12T05:57:43;7.73;;;5.30;;
14326;SDS011;7247;53.330;-1.180;2023-09-12T06:00:10;7.57;;;5.13;;
14326;SDS011;7247;53.330;-1.180;2023-09-12T06:02:38;5.53;;;4.90;;
14326;SDS011;7247;53.330;-1.180;2023-09-12T06:05:05;7.10;;;5.10;;
14326;SDS011;7247;53.330;-1.180;2023-09-12T06:07:32;7.20;;;4.70;;
14326;SDS011;7247;53.330;-1.180;2023-09-12T06:09:58;5.43;;;4.93;;
14326;SDS011;7247;53.330;-1.180;2023-09-12T06:12:24;5.93;;;5.23;;
14326;SDS011;7247;53.330;-1.180;2023-09-12T06:14:51;6.30;;;5.70;;
14326;SDS011;7247;53.330;-1.180;2023-09-12T06:17:18;7.90;;;6.07;;
14326;SDS011;7247;53.330;-1.180;2023-09-12T06:19:46;7.77;;;5.97;;
14326;SDS011;7247;53.330;-1.180;2023-09-12T06:22:14;6.43;;;5.67;;
14326;SDS011;7247;53.330;-1.180;2023-09-12T06:24:42;7.40;;;6.10;;
14326;SDS011;7247;53.330;-1.180;2023-09-12T06:27:08;5.50;;;5.00;;
14326;SDS011;7247;53.330;-1.180;2023-09-12T06:29:37;5.30;;;4.80;;
14326;SDS011;7247;53.330;-1.180;2023-09-12T06:32:04;6.40;;;4.70;;
14326;SDS011;7247;53.330;-1.180;2023-09-12T06:34:30;6.50;;;4.80;;
14326;SDS011;7247;53.330;-1.180;2023-09-12T06:36:58;5.63;;;4.50;;
14326;SDS011;7247;53.330;-1.180;2023-09-12T06:39:24;6.27;;;4.70;;
14326;SDS011;7247;53.330;-1.180;2023-09-12T06:41:51;5.30;;;4.90;;
14326;SDS011;7247;53.330;-1.180;2023-09-12T06:44:17;5.23;;;4.70;;
14326;SDS011;7247;53.330;-1.180;2023-09-12T06:46:43;7.07;;;4.20;;
14326;SDS011;7247;53.330;-1.180;2023-09-12T06:49:10;3.27;;;2.97;;
14326;SDS011;7247;53.330;-1.180;2023-09-12T06:51:36;4.63;;;2.43;;
14326;SDS011;7247;53.330;-1.180;2023-09-12T06:54:04;3.20;;;2.30;;
14326;SDS011;7247;53.330;-1.180;2023-09-12T06:56:30;3.60;;;2.27;;
14326;SDS011;7247;53.330;-1.180;2023-09-12T06:58:57;2.70;;;2.10;;
14326;SDS011;7247;53.330;-1.180;2023-09-12T07:01:24;2.50;;;2.20;;
14326;SDS011;7247;53.330;-1.180;2023-09-12T07:03:51;2.60;;;2.07;;
14326;SDS011;7247;53.330;-1.180;2023-09-12T07:06:19;6.87;;;2.47;;
14326;SDS011;7247;53.330;-1.180;2023-09-12T07:08:45;2.00;;;1.90;;
14326;SDS011;7247;53.330;-1.180;2023-09-12T07:11:13;2.20;;;1.70;;
14326;SDS011;7247;53.330;-1.180;2023-09-12T07:13:39;3.33;;;2.30;;
14326;SDS011;7247;53.330;-1.180;2023-09-12T07:16:05;3.07;;;2.27;;
14326;SDS011;7247;53.330;-1.180;2023-09-12T07:18:32;2.20;;;2.00;;
14326;SDS011;7247;53.330;-1.180;2023-09-12T07:20:59;3.50;;;2.40;;
14326;SDS011;7247;53.330;-1.180;2023-09-12T07:23:25;3.57;;;2.17;;
14326;SDS011;7247;53.330;-1.180;2023-09-12T07:25:51;3.37;;;2.57;;
14326;SDS011;7247;53.330;-1.180;2023-09-12T07:28:20;3.30;;;2.63;;
14326;SDS011;7247;53.330;-1.180;2023-09-12T07:30:47;3.87;;;2.67;;
14326;SDS011;7247;53.330;-1.180;2023-09-12T07:33:13;5.57;;;3.10;;
14326;SDS011;7247;53.330;-1.180;2023-09-12T07:35:39;4.43;;;3.50;;
14326;SDS011;7247;53.330;-1.180;2023-09-12T07:38:06;8.03;;;5.07;;
14326;SDS011;7247;53.330;-1.180;2023-09-12T07:40:32;10.37;;;6.90;;
14326;SDS011;7247;53.330;-1.180;2023-09-12T07:42:59;10.40;;;7.40;;
14326;SDS011;7247;53.330;-1.180;2023-09-12T07:45:26;10.90;;;6.73;;
14326;SDS011;7247;53.330;-1.180;2023-09-12T07:47:54;6.37;;;4.90;;
14326;SDS011;7247;53.330;-1.180;2023-09-12T07:50:21;5.90;;;3.77;;
14326;SDS011;7247;53.330;-1.180;2023-09-12T07:52:47;3.77;;;3.23;;
14326;SDS011;7247;53.330;-1.180;2023-09-12T07:55:13;5.10;;;2.93;;
14326;SDS011;7247;53.330;-1.180;2023-09-12T07:57:40;2.83;;;2.07;;
14326;SDS011;7247;53.330;-1.180;2023-09-12T08:00:07;2.63;;;2.43;;
14326;SDS011;7247;53.330;-1.180;2023-09-12T08:02:37;3.23;;;2.43;;
14326;SDS011;7247;53.330;-1.180;2023-09-12T08:05:03;3.40;;;2.63;;
14326;SDS011;7247;53.330;-1.180;2023-09-12T08:07:30;4.67;;;2.50;;
14326;SDS011;7247;53.330;-1.180;2023-09-12T08:09:57;4.83;;;2.70;;
14326;SDS011;7247;53.330;-1.180;2023-09-12T08:12:24;3.87;;;2.73;;
14326;SDS011;7247;53.330;-1.180;2023-09-12T08:14:50;3.93;;;2.63;;
14326;SDS011;7247;53.330;-1.180;2023-09-12T08:17:17;3.77;;;2.50;;
14326;SDS011;7247;53.330;-1.180;2023-09-12T08:19:45;2.80;;;2.50;;
14326;SDS011;7247;53.330;-1.180;2023-09-12T08:22:12;3.30;;;2.63;;
14326;SDS011;7247;53.330;-1.180;2023-09-12T08:24:38;4.17;;;2.70;;
14326;SDS011;7247;53.330;-1.180;2023-09-12T08:27:05;3.43;;;2.50;;
14326;SDS011;7247;53.330;-1.180;2023-09-12T08:29:32;4.17;;;2.70;;
14326;SDS011;7247;53.330;-1.180;2023-09-12T08:31:59;4.17;;;2.67;;
14326;SDS011;7247;53.330;-1.180;2023-09-12T08:34:25;4.50;;;2.70;;
14326;SDS011;7247;53.330;-1.180;2023-09-12T08:36:53;4.47;;;2.57;;
14326;SDS011;7247;53.330;-1.180;2023-09-12T08:39:22;3.43;;;2.40;;
14326;SDS011;7247;53.330;-1.180;2023-09-12T08:41:49;2.60;;;2.33;;
14326;SDS011;7247;53.330;-1.180;2023-09-12T08:44:16;3.10;;;2.30;;
14326;SDS011;7247;53.330;-1.180;2023-09-12T08:46:43;3.93;;;2.50;;
14326;SDS011;7247;53.330;-1.180;2023-09-12T08:49:10;3.27;;;2.40;;
14326;SDS011;7247;53.330;-1.180;2023-09-12T08:51:36;2.93;;;2.00;;
14326;SDS011;7247;53.330;-1.180;2023-09-12T08:54:04;3.53;;;1.97;;
14326;SDS011;7247;53.330;-1.180;2023-09-12T08:56:31;2.17;;;1.70;;
14326;SDS011;7247;53.330;-1.180;2023-09-12T08:58:58;2.10;;;1.70;;
14326;SDS011;7247;53.330;-1.180;2023-09-12T09:01:25;2.67;;;1.60;;
14326;SDS011;7247;53.330;-1.180;2023-09-12T09:03:52;2.00;;;1.80;;
14326;SDS011;7247;53.330;-1.180;2023-09-12T09:06:19;4.10;;;1.73;;
14326;SDS011;7247;53.330;-1.180;2023-09-12T09:08:46;1.80;;;1.60;;
14326;SDS011;7247;53.330;-1.180;2023-09-12T09:11:15;2.20;;;1.50;;
14326;SDS011;7247;53.330;-1.180;2023-09-12T09:13:41;4.00;;;2.00;;
14326;SDS011;7247;53.330;-1.180;2023-09-12T09:16:11;2.20;;;1.60;;
14326;SDS011;7247;53.330;-1.180;2023-09-12T09:18:53;2.93;;;1.93;;
14326;SDS011;7247;53.330;-1.180;2023-09-12T09:21:20;3.60;;;1.80;;
14326;SDS011;7247;53.330;-1.180;2023-09-12T09:23:49;2.57;;;1.60;;
14326;SDS011;7247;53.330;-1.180;2023-09-12T09:26:17;2.80;;;1.90;;
14326;SDS011;7247;53.330;-1.180;2023-09-12T09:28:44;6.03;;;1.80;;
14326;SDS011;7247;53.330;-1.180;2023-09-12T09:31:11;1.53;;;1.40;;
14326;SDS011;7247;53.330;-1.180;2023-09-12T09:33:37;2.40;;;1.20;;
14326;SDS011;7247;53.330;-1.180;2023-09-12T09:36:05;2.70;;;1.20;;
14326;SDS011;7247;53.330;-1.180;2023-09-12T09:38:33;1.50;;;1.20;;
14326;SDS011;7247;53.330;-1.180;2023-09-12T09:41:00;1.30;;;1.17;;
14326;SDS011;7247;53.330;-1.180;2023-09-12T09:43:28;1.00;;;1.00;;
14326;SDS011;7247;53.330;-1.180;2023-09-12T09:45:57;1.20;;;1.10;;
14326;SDS011;7247;53.330;-1.180;2023-09-12T09:48:23;1.37;;;1.10;;
14326;SDS011;7247;53.330;-1.180;2023-09-12T09:50:52;1.70;;;1.10;;
14326;SDS011;7247;53.330;-1.180;2023-09-12T09:53:21;1.83;;;0.87;;
14326;SDS011;7247;53.330;-1.180;2023-09-12T09:55:47;1.23;;;1.10;;
14326;SDS011;7247;53.330;-1.180;2023-09-12T09:58:14;4.37;;;0.90;;
14326;SDS011;7247;53.330;-1.180;2023-09-12T10:00:43;0.90;;;0.73;;
14326;SDS011;7247;53.330;-1.180;2023-09-12T10:03:09;2.23;;;0.70;;
14326;SDS011;7247;53.330;-1.180;2023-09-12T10:05:37;1.20;;;0.90;;
14326;SDS011;7247;53.330;-1.180;2023-09-12T10:08:05;2.43;;;0.70;;
14326;SDS011;7247;53.330;-1.180;2023-09-12T10:10:34;0.70;;;0.70;;
14326;SDS011;7247;53.330;-1.180;2023-09-12T10:13:02;2.00;;;1.23;;
14326;SDS011;7247;53.330;-1.180;2023-09-12T10:15:29;2.13;;;1.70;;
14326;SDS011;7247;53.330;-1.180;2023-09-12T10:17:59;1.93;;;1.80;;
14326;SDS011;7247;53.330;-1.180;2023-09-12T10:20:27;2.17;;;1.97;;
14326;SDS011;7247;53.330;-1.180;2023-09-12T10:22:57;1.90;;;1.70;;
14326;SDS011;7247;53.330;-1.180;2023-09-12T10:25:24;1.90;;;1.80;;
14326;SDS011;7247;53.330;-1.180;2023-09-12T10:27:51;2.30;;;2.00;;
14326;SDS011;7247;53.330;-1.180;2023-09-12T10:30:18;3.17;;;1.93;;
14326;SDS011;7247;53.330;-1.180;2023-09-12T10:32:45;1.90;;;1.80;;
14326;SDS011;7247;53.330;-1.180;2023-09-12T10:35:13;3.17;;;2.40;;
14326;SDS011;7247;53.330;-1.180;2023-09-12T10:37:41;4.37;;;2.80;;
14326;SDS011;7247;53.330;-1.180;2023-09-12T10:40:08;2.93;;;2.63;;
14326;SDS011;7247;53.330;-1.180;2023-09-12T10:42:34;3.30;;;2.70;;
14326;SDS011;7247;53.330;-1.180;2023-09-12T10:45:01;2.67;;;2.47;;
14326;SDS011;7247;53.330;-1.180;2023-09-12T10:47:29;2.93;;;2.27;;
14326;SDS011;7247;53.330;-1.180;2023-09-12T10:49:55;4.77;;;2.60;;
14326;SDS011;7247;53.330;-1.180;2023-09-12T10:52:26;2.30;;;2.10;;
14326;SDS011;7247;53.330;-1.180;2023-09-12T10:54:53;2.50;;;2.27;;
14326;SDS011;7247;53.330;-1.180;2023-09-12T10:57:19;3.07;;;2.13;;
14326;SDS011;7247;53.330;-1.180;2023-09-12T11:02:34;3.30;;;2.60;;
14326;SDS011;7247;53.330;-1.180;2023-09-12T11:05:02;2.63;;;2.40;;
14326;SDS011;7247;53.330;-1.180;2023-09-12T11:07:44;3.53;;;2.03;;
14326;SDS011;7247;53.330;-1.180;2023-09-12T11:10:20;3.53;;;2.47;;
14326;SDS011;7247;53.330;-1.180;2023-09-12T11:12:47;3.07;;;2.30;;
14326;SDS011;7247;53.330;-1.180;2023-09-12T11:15:14;2.00;;;1.90;;
14326;SDS011;7247;53.330;-1.180;2023-09-12T11:17:42;1.90;;;1.80;;
14326;SDS011;7247;53.330;-1.180;2023-09-12T11:20:09;1.93;;;1.80;;
14326;SDS011;7247;53.330;-1.180;2023-09-12T11:22:36;1.90;;;1.70;;
14326;SDS011;7247;53.330;-1.180;2023-09-12T11:25:06;1.60;;;1.50;;
14326;SDS011;7247;53.330;-1.180;2023-09-12T11:27:44;2.23;;;1.90;;
14326;SDS011;7247;53.330;-1.180;2023-09-12T11:30:10;2.03;;;1.70;;
14326;SDS011;7247;53.330;-1.180;2023-09-12T11:32:37;2.10;;;1.70;;
14326;SDS011;7247;53.330;-1.180;2023-09-12T11:35:07;1.77;;;1.67;;
14326;SDS011;7247;53.330;-1.180;2023-09-12T11:37:34;1.87;;;1.77;;
14326;SDS011;7247;53.330;-1.180;2023-09-12T11:40:02;2.07;;;1.87;;
14326;SDS011;7247;53.330;-1.180;2023-09-12T11:42:30;2.07;;;1.97;;
14326;SDS011;7247;53.330;-1.180;2023-09-12T11:44:57;2.33;;;1.80;;
14326;SDS011;7247;53.330;-1.180;2023-09-12T11:47:23;3.77;;;1.70;;
14326;SDS011;7247;53.330;-1.180;2023-09-12T11:49:51;1.60;;;1.50;;
14326;SDS011;7247;53.330;-1.180;2023-09-12T11:52:17;1.30;;;1.20;;
14326;SDS011;7247;53.330;-1.180;2023-09-12T11:54:44;1.60;;;1.30;;
14326;SDS011;7247;53.330;-1.180;2023-09-12T11:57:12;1.53;;;1.20;;
14326;SDS011;7247;53.330;-1.180;2023-09-12T11:59:40;1.93;;;1.00;;
14326;SDS011;7247;53.330;-1.180;2023-09-12T12:02:09;0.97;;;0.90;;
14326;SDS011;7247;53.330;-1.180;2023-09-12T12:04:35;1.27;;;1.17;;
14326;SDS011;7247;53.330;-1.180;2023-09-12T12:07:03;2.30;;;1.00;;
14326;SDS011;7247;53.330;-1.180;2023-09-12T12:09:30;1.83;;;1.30;;
14326;SDS011;7247;53.330;-1.180;2023-09-12T12:11:56;1.97;;;1.10;;
14326;SDS011;7247;53.330;-1.180;2023-09-12T12:14:26;2.40;;;1.23;;
14326;SDS011;7247;53.330;-1.180;2023-09-12T12:16:54;1.77;;;1.20;;
14326;SDS011;7247;53.330;-1.180;2023-09-12T12:19:21;1.97;;;1.07;;
14326;SDS011;7247;53.330;-1.180;2023-09-12T12:21:48;2.67;;;1.30;;
14326;SDS011;7247;53.330;-1.180;2023-09-12T12:24:14;2.27;;;1.40;;
14326;SDS011;7247;53.330;-1.180;2023-09-12T12:26:40;1.83;;;1.30;;
14326;SDS011;7247;53.330;-1.180;2023-09-12T12:29:08;1.90;;;1.30;;
14326;SDS011;7247;53.330;-1.180;2023-09-12T12:31:35;3.67;;;1.60;;
14326;SDS011;7247;53.330;-1.180;2023-09-12T12:34:05;2.73;;;1.70;;
14326;SDS011;7247;53.330;-1.180;2023-09-12T12:36:31;3.53;;;1.90;;
14326;SDS011;7247;53.330;-1.180;2023-09-12T12:38:58;3.33;;;1.57;;
14326;SDS011;7247;53.330;-1.180;2023-09-12T12:41:25;3.33;;;1.93;;
14326;SDS011;7247;53.330;-1.180;2023-09-12T12:43:52;4.60;;;2.10;;
14326;SDS011;7247;53.330;-1.180;2023-09-12T12:46:19;3.87;;;2.10;;
14326;SDS011;7247;53.330;-1.180;2023-09-12T12:48:46;4.37;;;2.13;;
14326;SDS011;7247;53.330;-1.180;2023-09-12T12:51:15;6.03;;;2.27;;
14326;SDS011;7247;53.330;-1.180;2023-09-12T12:53:43;3.87;;;1.80;;
14326;SDS011;7247;53.330;-1.180;2023-09-12T12:56:11;4.77;;;2.20;;
14326;SDS011;7247;53.330;-1.180;2023-09-12T12:58:38;5.20;;;2.20;;
14326;SDS011;7247;53.330;-1.180;2023-09-12T13:01:04;3.97;;;2.43;;
14326;SDS011;7247;53.330;-1.180;2023-09-12T13:03:30;4.50;;;2.10;;
14326;SDS011;7247;53.330;-1.180;2023-09-12T13:05:57;4.83;;;2.40;;
14326;SDS011;7247;53.330;-1.180;2023-09-12T13:08:25;3.83;;;2.13;;
14326;SDS011;7247;53.330;-1.180;2023-09-12T13:10:52;4.43;;;2.00;;
14326;SDS011;7247;53.330;-1.180;2023-09-12T13:13:18;3.23;;;2.20;;
14326;SDS011;7247;53.330;-1.180;2023-09-12T13:15:44;3.97;;;2.37;;
14326;SDS011;7247;53.330;-1.180;2023-09-12T13:18:11;3.17;;;1.87;;
14326;SDS011;7247;53.330;-1.180;2023-09-12T13:20:37;3.10;;;2.10;;
14326;SDS011;7247;53.330;-1.180;2023-09-12T13:23:04;3.67;;;2.00;;
14326;SDS011;7247;53.330;-1.180;2023-09-12T13:25:31;4.50;;;2.20;;
14326;SDS011;7247;53.330;-1.180;2023-09-12T13:27:58;5.33;;;2.10;;
14326;SDS011;7247;53.330;-1.180;2023-09-12T13:30:24;3.63;;;2.00;;
14326;SDS011;7247;53.330;-1.180;2023-09-12T13:32:50;2.17;;;1.83;;
14326;SDS011;7247;53.330;-1.180;2023-09-12T13:35:17;3.27;;;2.07;;
14326;SDS011;7247;53.330;-1.180;2023-09-12T13:37:43;4.77;;;2.00;;
14326;SDS011;7247;53.330;-1.180;2023-09-12T13:40:10;5.07;;;1.90;;
14326;SDS011;7247;53.330;-1.180;2023-09-12T13:42:37;3.00;;;1.93;;
14326;SDS011;7247;53.330;-1.180;2023-09-12T13:45:04;3.57;;;2.10;;
14326;SDS011;7247;53.330;-1.180;2023-09-12T13:47:31;4.67;;;1.97;;
14326;SDS011;7247;53.330;-1.180;2023-09-12T13:49:58;3.30;;;1.80;;
14326;SDS011;7247;53.330;-1.180;2023-09-12T13:52:25;2.10;;;1.80;;
14326;SDS011;7247;53.330;-1.180;2023-09-12T13:54:52;3.37;;;1.53;;
14326;SDS011;7247;53.330;-1.180;2023-09-12T13:57:18;3.17;;;1.80;;
14326;SDS011;7247;53.330;-1.180;2023-09-12T13:59:46;5.67;;;1.80;;
14326;SDS011;7247;53.330;-1.180;2023-09-12T14:02:12;3.60;;;1.73;;
14326;SDS011;7247;53.330;-1.180;2023-09-12T14:04:39;3.17;;;1.80;;
14326;SDS011;7247;53.330;-1.180;2023-09-12T14:07:05;4.07;;;1.97;;
14326;SDS011;7247;53.330;-1.180;2023-09-12T14:09:32;1.83;;;1.67;;
14326;SDS011;7247;53.330;-1.180;2023-09-12T14:11:58;1.73;;;1.57;;
14326;SDS011;7247;53.330;-1.180;2023-09-12T14:14:24;4.40;;;1.83;;
14326;SDS011;7247;53.330;-1.180;2023-09-12T14:16:52;4.30;;;1.90;;
14326;SDS011;7247;53.330;-1.180;2023-09-12T14:19:19;2.57;;;2.00;;
14326;SDS011;7247;53.330;-1.180;2023-09-12T14:21:45;3.77;;;1.90;;
14326;SDS011;7247;53.330;-1.180;2023-09-12T14:24:11;3.57;;;2.10;;
14326;SDS011;7247;53.330;-1.180;2023-09-12T14:26:38;3.57;;;1.93;;
14326;SDS011;7247;53.330;-1.180;2023-09-12T14:29:04;2.43;;;2.23;;
14326;SDS011;7247;53.330;-1.180;2023-09-12T14:31:31;3.33;;;2.50;;
14326;SDS011;7247;53.330;-1.180;2023-09-12T14:33:58;3.53;;;1.80;;
14326;SDS011;7247;53.330;-1.180;2023-09-12T14:36:25;4.07;;;2.13;;
14326;SDS011;7247;53.330;-1.180;2023-09-12T14:38:51;3.30;;;1.67;;
14326;SDS011;7247;53.330;-1.180;2023-09-12T14:41:17;3.60;;;1.63;;
14326;SDS011;7247;53.330;-1.180;2023-09-12T14:43:44;2.17;;;1.57;;
14326;SDS011;7247;53.330;-1.180;2023-09-12T14:46:10;3.10;;;1.87;;